createdAt,value
2023-02-11T00:01:30.819Z,25.13
2023-02-11T00:03:34.170Z,21.47
2023-02-11T00:05:37.605Z,22.43
2023-02-11T00:07:40.899Z,18.87
2023-02-11T00:09:44.252Z,19.77
2023-02-11T00:11:47.531Z,25.57
2023-02-11T00:13:52.505Z,19.37
2023-02-11T00:15:56.320Z,25.17
2023-02-11T00:17:59.601Z,21.70
2023-02-11T00:20:03.022Z,20.80
2023-02-11T00:22:06.340Z,24.57
2023-02-11T00:24:09.651Z,19.90
2023-02-11T00:26:14.163Z,19.40
2023-02-11T00:28:18.987Z,20.23
2023-02-11T00:30:23.988Z,21.83
2023-02-11T00:32:27.385Z,26.63
2023-02-11T00:34:30.675Z,20.30
2023-02-11T00:36:34.032Z,21.13
2023-02-11T00:38:37.485Z,29.23
2023-02-11T00:40:41.082Z,18.47
2023-02-11T00:42:44.397Z,18.60
2023-02-11T00:44:47.749Z,19.97
2023-02-11T00:46:54.861Z,22.90
2023-02-11T00:48:58.268Z,16.20
2023-02-11T00:51:02.071Z,15.87
2023-02-11T00:53:05.466Z,20.67
2023-02-11T00:55:09.653Z,21.10
2023-02-11T00:57:13.089Z,23.57
2023-02-11T00:59:16.432Z,19.17
2023-02-11T01:01:20.775Z,17.20
2023-02-11T01:03:25.560Z,18.57
2023-02-11T01:05:29.227Z,19.60
2023-02-11T01:07:32.643Z,16.40
2023-02-11T01:09:38.613Z,19.90
2023-02-11T01:11:42.372Z,22.17
2023-02-11T01:13:46.535Z,18.80
2023-02-11T01:15:50.326Z,18.87
2023-02-11T01:17:54.256Z,18.60
2023-02-11T01:19:59.063Z,18.97
2023-02-11T01:22:02.493Z,17.17
2023-02-11T01:24:06.132Z,20.10
2023-02-11T01:26:09.497Z,17.00
2023-02-11T01:28:18.049Z,18.30
2023-02-11T01:30:21.361Z,18.00
2023-02-11T01:32:24.695Z,22.03
2023-02-11T01:34:30.472Z,18.40
2023-02-11T01:36:35.092Z,18.67
2023-02-11T01:38:40.775Z,18.77
2023-02-11T01:40:48.577Z,23.30
2023-02-11T01:42:52.586Z,20.03
2023-02-11T01:44:58.543Z,19.93
2023-02-11T01:47:04.686Z,18.17
2023-02-11T01:49:11.705Z,19.50
2023-02-11T01:51:19.560Z,17.73
2023-02-11T01:53:42.086Z,22.03
2023-02-11T01:56:03.359Z,19.60
2023-02-11T01:58:07.524Z,24.60
2023-02-11T02:00:14.691Z,20.87
2023-02-11T02:02:25.014Z,21.33
2023-02-11T02:04:34.268Z,20.33
2023-02-11T02:06:43.173Z,19.60
2023-02-11T02:08:54.465Z,18.60
2023-02-11T02:11:00.797Z,21.27
2023-02-11T02:13:04.190Z,27.63
2023-02-11T02:15:20.203Z,19.90
2023-02-11T02:17:33.902Z,23.67
2023-02-11T02:20:04.205Z,22.23
2023-02-11T02:22:32.875Z,23.40
2023-02-11T02:25:10.646Z,19.13
2023-02-11T02:27:39.071Z,20.80
2023-02-11T02:30:18.793Z,23.60
2023-02-11T02:33:21.668Z,25.30
2023-02-11T02:35:33.547Z,21.13
2023-02-11T02:37:42.093Z,22.93
2023-02-11T02:39:49.647Z,25.43
2023-02-11T02:41:54.397Z,20.73
2023-02-11T02:43:58.269Z,24.80
2023-02-11T02:46:12.657Z,22.37
2023-02-11T02:48:27.798Z,25.47
2023-02-11T02:50:37.653Z,19.90
2023-02-11T02:52:53.586Z,21.37
2023-02-11T02:55:20.111Z,25.10
2023-02-11T02:57:33.377Z,24.47
2023-02-11T02:59:48.830Z,23.77
2023-02-11T03:02:06.142Z,22.53
2023-02-11T03:04:18.431Z,22.73
2023-02-11T03:06:31.883Z,22.70
2023-02-11T03:08:41.664Z,22.63
2023-02-11T03:10:48.311Z,21.53
2023-02-11T03:12:54.613Z,23.63
2023-02-11T03:15:00.301Z,21.13
2023-02-11T03:17:06.941Z,24.67
2023-02-11T03:19:14.250Z,22.13
2023-02-11T03:21:19.256Z,25.03
2023-02-11T03:23:29.486Z,24.97
2023-02-11T03:25:38.807Z,24.03
2023-02-11T03:27:47.586Z,21.63
2023-02-11T03:29:56.434Z,23.37
2023-02-11T03:32:04.716Z,27.60
2023-02-11T03:34:14.441Z,23.90
2023-02-11T03:36:23.942Z,24.77
2023-02-11T03:38:32.364Z,25.83
2023-02-11T03:40:39.258Z,22.07
2023-02-11T03:42:45.780Z,21.70
2023-02-11T03:44:52.783Z,27.10
2023-02-11T03:46:56.975Z,25.50
2023-02-11T03:49:04.488Z,24.10
2023-02-11T03:51:10.710Z,29.87
2023-02-11T03:53:15.852Z,31.87
2023-02-11T03:55:25.822Z,24.23
2023-02-11T03:57:29.479Z,22.10
2023-02-11T03:59:32.866Z,22.57
2023-02-11T04:01:36.219Z,20.57
2023-02-11T04:03:39.770Z,25.20
2023-02-11T04:05:43.236Z,22.17
2023-02-11T04:07:46.484Z,29.23
2023-02-11T04:09:49.902Z,23.37
2023-02-11T04:11:54.597Z,27.00
2023-02-11T04:13:57.935Z,23.20
2023-02-11T04:16:01.346Z,29.13
2023-02-11T04:18:05.373Z,22.77
2023-02-11T04:20:09.831Z,29.27
2023-02-11T04:22:13.215Z,23.97
2023-02-11T04:24:16.578Z,26.30
2023-02-11T04:26:20.011Z,25.63
2023-02-11T04:28:24.820Z,25.97
2023-02-11T04:30:28.202Z,26.20
2023-02-11T04:32:32.639Z,26.47
2023-02-11T04:34:36.120Z,22.20
2023-02-11T04:36:39.475Z,23.87
2023-02-11T04:38:42.825Z,23.67
2023-02-11T04:40:46.238Z,25.83
2023-02-11T04:42:49.548Z,23.13
2023-02-11T04:44:54.289Z,25.10
2023-02-11T04:46:57.925Z,26.73
2023-02-11T04:49:01.381Z,23.30
2023-02-11T04:51:05.166Z,19.03
2023-02-11T04:53:08.432Z,27.07
2023-02-11T04:55:12.979Z,22.03
2023-02-11T04:57:16.397Z,20.20
2023-02-11T04:59:19.900Z,25.07
2023-02-11T05:01:24.665Z,23.50
2023-02-11T05:03:27.963Z,24.60
2023-02-11T05:05:31.283Z,18.03
2023-02-11T05:07:34.955Z,21.23
2023-02-11T05:09:38.265Z,21.37
2023-02-11T05:11:41.888Z,24.77
2023-02-11T05:13:45.429Z,19.57
2023-02-11T05:15:49.126Z,23.63
2023-02-11T05:17:54.220Z,23.77
2023-02-11T05:19:57.582Z,19.30
2023-02-11T05:22:03.424Z,24.27
2023-02-11T05:24:08.077Z,22.80
2023-02-11T05:26:12.320Z,25.07
2023-02-11T05:28:15.737Z,18.63
2023-02-11T05:30:19.215Z,22.07
2023-02-11T05:32:22.618Z,17.03
2023-02-11T05:34:27.316Z,25.33
2023-02-11T05:36:33.470Z,20.80
2023-02-11T05:38:38.088Z,22.73
2023-02-11T05:40:41.810Z,22.70
2023-02-11T05:42:45.150Z,23.03
2023-02-11T05:44:50.549Z,25.30
2023-02-11T05:46:54.047Z,24.80
2023-02-11T05:48:57.585Z,18.93
2023-02-11T05:51:02.257Z,29.33
2023-02-11T05:53:06.822Z,27.10
2023-02-11T05:55:10.333Z,27.40
2023-02-11T05:57:13.766Z,30.10
2023-02-11T05:59:17.371Z,26.23
2023-02-11T06:01:20.895Z,24.03
2023-02-11T06:03:24.190Z,25.03
2023-02-11T06:05:27.868Z,29.20
2023-02-11T06:07:32.593Z,25.93
2023-02-11T06:09:35.891Z,25.60
2023-02-11T06:11:39.364Z,25.40
2023-02-11T06:13:42.821Z,27.77
2023-02-11T06:15:46.394Z,26.47
2023-02-11T06:17:49.682Z,25.63
2023-02-11T06:19:53.010Z,29.97
2023-02-11T06:21:56.963Z,27.23
2023-02-11T06:24:01.709Z,23.73
2023-02-11T06:26:07.010Z,25.53
2023-02-11T06:28:10.743Z,23.90
2023-02-11T06:30:15.207Z,27.73
2023-02-11T06:32:39.574Z,26.07
2023-02-11T06:34:42.300Z,26.23
2023-02-11T06:36:45.720Z,25.33
2023-02-11T06:38:49.995Z,25.40
2023-02-11T06:40:54.647Z,27.47
2023-02-11T06:42:58.006Z,25.87
2023-02-11T06:45:01.403Z,29.50
2023-02-11T06:47:05.159Z,27.33
2023-02-11T06:49:08.610Z,23.80
2023-02-11T06:51:13.716Z,26.73
2023-02-11T06:53:17.089Z,31.33
2023-02-11T06:55:20.668Z,26.10
2023-02-11T06:57:25.407Z,36.30
2023-02-11T06:59:29.027Z,30.73
2023-02-11T07:01:32.506Z,29.33
2023-02-11T07:03:37.672Z,33.63
2023-02-11T07:05:43.860Z,28.70
2023-02-11T07:07:47.308Z,31.80
2023-02-11T07:09:50.640Z,30.70
2023-02-11T07:11:54.152Z,29.30
2023-02-11T07:14:03.606Z,31.60
2023-02-11T07:16:07.554Z,29.70
2023-02-11T07:18:13.618Z,28.63
2023-02-11T07:20:18.267Z,33.43
2023-02-11T07:22:21.701Z,32.73
2023-02-11T07:24:25.189Z,31.27
2023-02-11T07:26:28.947Z,28.63
2023-02-11T07:28:32.823Z,34.27
2023-02-11T07:30:37.552Z,31.23
2023-02-11T07:32:40.974Z,30.47
2023-02-11T07:34:44.374Z,30.23
2023-02-11T07:36:48.932Z,25.83
2023-02-11T07:38:52.388Z,27.00
2023-02-11T07:40:55.708Z,30.20
2023-02-11T07:42:59.297Z,31.53
2023-02-11T07:45:02.744Z,27.73
2023-02-11T07:47:07.623Z,28.10
2023-02-11T07:49:11.409Z,27.87
2023-02-11T07:51:16.877Z,35.20
2023-02-11T07:53:20.225Z,28.07
2023-02-11T07:55:23.554Z,32.63
2023-02-11T07:57:26.902Z,36.13
2023-02-11T07:59:30.246Z,33.70
2023-02-11T08:01:33.790Z,40.77
2023-02-11T08:03:39.256Z,33.70
2023-02-11T08:05:43.810Z,31.60
2023-02-11T08:07:47.423Z,35.47
2023-02-11T08:09:50.780Z,29.60
2023-02-11T08:11:54.361Z,33.27
2023-02-11T08:13:58.254Z,33.27
2023-02-11T08:16:01.702Z,34.70
2023-02-11T08:18:05.192Z,38.03
2023-02-11T08:20:10.828Z,45.13
2023-02-11T08:22:14.558Z,34.37
2023-02-11T08:24:18.009Z,38.93
2023-02-11T08:26:23.669Z,36.00
2023-02-11T08:28:27.137Z,40.40
2023-02-11T08:30:30.551Z,33.10
2023-02-11T08:32:35.878Z,40.23
2023-02-11T08:34:39.197Z,32.53
2023-02-11T08:36:44.913Z,33.40
2023-02-11T08:38:48.424Z,43.60
2023-02-11T08:40:52.002Z,37.77
2023-02-11T08:42:55.494Z,36.97
2023-02-11T08:44:58.953Z,34.87
2023-02-11T08:47:02.434Z,38.00
2023-02-11T08:49:05.959Z,41.93
2023-02-11T08:51:10.891Z,41.80
2023-02-11T08:53:15.711Z,35.67
2023-02-11T08:55:19.411Z,43.10
2023-02-11T08:57:22.757Z,38.07
2023-02-11T08:59:26.332Z,37.90
2023-02-11T09:01:31.443Z,31.70
2023-02-11T09:03:34.831Z,38.80
2023-02-11T09:05:42.084Z,42.23
2023-02-11T09:07:45.503Z,30.37
2023-02-11T09:09:50.199Z,28.60
2023-02-11T09:11:57.190Z,37.17
2023-02-11T09:14:00.914Z,34.77
2023-02-11T09:16:06.367Z,34.97
2023-02-11T09:18:09.728Z,34.67
2023-02-11T09:20:13.029Z,34.80
2023-02-11T09:22:16.744Z,33.27
2023-02-11T09:24:20.305Z,33.87
2023-02-11T09:26:27.657Z,32.80
2023-02-11T09:28:31.183Z,34.43
2023-02-11T09:30:34.844Z,34.87
2023-02-11T09:32:38.355Z,36.23
2023-02-11T09:34:42.532Z,30.67
2023-02-11T09:36:45.950Z,31.60
2023-02-11T09:38:50.038Z,36.97
2023-02-11T09:40:53.490Z,31.37
2023-02-11T09:43:04.588Z,34.33
2023-02-11T09:45:17.601Z,32.00
2023-02-11T09:47:28.567Z,34.67
2023-02-11T09:49:36.405Z,39.13
2023-02-11T09:51:46.335Z,36.73
2023-02-11T09:53:53.762Z,36.20
2023-02-11T09:55:59.831Z,29.70
2023-02-11T09:58:08.759Z,34.30
2023-02-11T10:00:20.103Z,32.50
2023-02-11T10:02:28.988Z,31.90
2023-02-11T10:04:51.219Z,31.97
2023-02-11T10:06:57.542Z,35.27
2023-02-11T10:09:14.230Z,33.40
2023-02-11T10:11:31.519Z,36.30
2023-02-11T10:13:52.361Z,37.07
2023-02-11T10:16:06.934Z,33.73
2023-02-11T10:18:27.901Z,31.00
2023-02-11T10:20:36.855Z,27.87
2023-02-11T10:22:45.483Z,32.53
2023-02-11T10:24:53.011Z,32.43
2023-02-11T10:26:56.602Z,32.97
2023-02-11T10:29:08.246Z,35.73
2023-02-11T10:31:16.396Z,33.60
2023-02-11T10:33:27.028Z,37.33
2023-02-11T10:35:30.516Z,33.93
2023-02-11T10:37:34.027Z,32.73
2023-02-11T10:39:39.909Z,31.63
2023-02-11T10:41:46.205Z,27.67
2023-02-11T10:43:50.812Z,33.20
2023-02-11T10:45:57.979Z,34.73
2023-02-11T10:48:01.962Z,33.00
2023-02-11T10:50:20.257Z,36.13
2023-02-11T10:52:25.878Z,34.20
2023-02-11T10:54:29.295Z,35.47
2023-02-11T10:56:35.570Z,38.10
2023-02-11T10:58:45.812Z,31.80
2023-02-11T11:00:53.929Z,36.47
2023-02-11T11:03:01.292Z,36.07
2023-02-11T11:05:07.089Z,34.97
2023-02-11T11:07:19.143Z,34.97
2023-02-11T11:09:30.945Z,31.13
2023-02-11T11:11:34.440Z,36.80
2023-02-11T11:13:39.880Z,33.53
2023-02-11T11:15:43.321Z,42.13
2023-02-11T11:17:46.882Z,36.23
2023-02-11T11:19:51.711Z,33.03
2023-02-11T11:21:56.985Z,37.53
2023-02-11T11:24:03.335Z,37.30
2023-02-11T11:26:11.123Z,35.07
2023-02-11T11:28:25.216Z,33.43
2023-02-11T11:30:39.804Z,31.77
2023-02-11T11:32:43.726Z,32.53
2023-02-11T11:34:54.046Z,32.80
2023-02-11T11:36:59.527Z,33.90
2023-02-11T11:39:13.596Z,40.90
2023-02-11T11:41:21.859Z,32.13
2023-02-11T11:43:25.347Z,35.30
2023-02-11T11:45:28.838Z,36.03
2023-02-11T11:47:39.380Z,30.00
2023-02-11T11:49:48.630Z,34.93
2023-02-11T11:51:59.816Z,39.27
2023-02-11T11:54:07.390Z,34.70
2023-02-11T11:56:15.315Z,33.17
2023-02-11T11:58:20.986Z,41.37
2023-02-11T12:00:30.501Z,36.70
2023-02-11T12:03:24.694Z,37.63
2023-02-11T12:05:34.287Z,33.47
2023-02-11T12:07:54.102Z,36.40
2023-02-11T12:10:23.943Z,37.80
2023-02-11T12:12:39.844Z,37.07
2023-02-11T12:14:53.813Z,36.63
2023-02-11T12:17:04.078Z,40.27
2023-02-11T12:19:38.151Z,32.53
2023-02-11T12:21:51.207Z,38.00
2023-02-11T12:24:15.694Z,37.30
2023-02-11T12:26:23.093Z,42.40
2023-02-11T12:28:36.986Z,38.03
2023-02-11T12:30:54.370Z,36.87
2023-02-11T12:33:12.730Z,38.03
2023-02-11T12:35:30.597Z,33.80
2023-02-11T12:37:45.260Z,39.00
2023-02-11T12:39:57.823Z,37.70
2023-02-11T12:42:45.812Z,33.57
2023-02-11T12:45:05.871Z,34.07
2023-02-11T12:47:22.148Z,44.97
2023-02-11T12:49:46.577Z,35.83
2023-02-11T12:52:08.148Z,36.50
2023-02-11T12:54:25.553Z,34.73
2023-02-11T12:56:38.791Z,43.17
2023-02-11T12:58:45.746Z,38.97
2023-02-11T13:00:54.163Z,36.57
2023-02-11T13:03:05.227Z,38.20
2023-02-11T13:05:20.801Z,37.40
2023-02-11T13:07:29.094Z,37.40
2023-02-11T13:09:40.150Z,43.03
2023-02-11T13:11:52.104Z,41.03
2023-02-11T13:14:01.498Z,38.00
2023-02-11T13:16:07.787Z,37.93
2023-02-11T13:18:22.994Z,41.90
2023-02-11T13:20:36.535Z,46.00
2023-02-11T13:22:45.054Z,49.90
2023-02-11T13:24:54.407Z,41.97
2023-02-11T13:27:11.485Z,30.23
2023-02-11T13:29:25.125Z,36.60
2023-02-11T13:31:30.262Z,39.90
2023-02-11T13:33:36.082Z,42.37
2023-02-11T13:35:41.146Z,42.13
2023-02-11T13:37:49.072Z,39.33
2023-02-11T13:40:01.013Z,38.47
2023-02-11T13:42:06.169Z,42.40
2023-02-11T13:44:26.384Z,42.90
2023-02-11T13:46:49.852Z,46.63
2023-02-11T13:48:55.122Z,43.00
2023-02-11T13:51:01.621Z,43.27
2023-02-11T13:53:07.323Z,40.03
2023-02-11T13:55:22.603Z,37.40
2023-02-11T13:57:45.156Z,40.50
2023-02-11T13:59:51.163Z,43.53
2023-02-11T14:02:24.654Z,41.43
2023-02-11T14:04:48.790Z,39.60
2023-02-11T14:07:44.480Z,36.67
2023-02-11T14:09:48.053Z,43.63
2023-02-11T14:11:55.345Z,40.13
2023-02-11T14:14:18.008Z,36.37
2023-02-11T14:16:36.893Z,41.00
2023-02-11T14:19:00.531Z,42.33
2023-02-11T14:21:13.173Z,43.13
2023-02-11T14:23:27.318Z,44.77
2023-02-11T14:25:31.402Z,38.13
2023-02-11T14:27:43.392Z,39.40
2023-02-11T14:29:59.495Z,44.33
2023-02-11T14:32:09.928Z,42.37
2023-02-11T14:34:35.702Z,44.13
2023-02-11T14:37:04.984Z,42.50
2023-02-11T14:39:18.488Z,43.23
2023-02-11T14:41:25.347Z,52.67
2023-02-11T14:43:34.359Z,43.67
2023-02-11T14:45:40.297Z,42.90
2023-02-11T14:47:50.554Z,46.10
2023-02-11T14:49:55.226Z,44.67
2023-02-11T14:52:05.052Z,48.33
2023-02-11T14:54:15.196Z,45.47
2023-02-11T14:56:21.613Z,40.73
2023-02-11T14:58:26.722Z,40.23
2023-02-11T15:00:30.495Z,39.90
2023-02-11T15:02:38.313Z,40.80
2023-02-11T15:04:42.829Z,42.07
2023-02-11T15:06:49.583Z,43.23
2023-02-11T15:08:57.196Z,42.17
2023-02-11T15:11:03.890Z,42.77
2023-02-11T15:13:07.578Z,44.73
2023-02-11T15:15:14.632Z,41.17
2023-02-11T15:17:23.122Z,42.93
2023-02-11T15:19:34.408Z,48.47
2023-02-11T15:21:38.275Z,46.47
2023-02-11T15:23:46.133Z,37.33
2023-02-11T15:25:52.977Z,43.70
2023-02-11T15:27:58.574Z,44.50
2023-02-11T15:30:02.139Z,46.23
2023-02-11T15:32:07.756Z,42.67
2023-02-11T15:34:13.197Z,38.17
2023-02-11T15:36:20.432Z,44.67
2023-02-11T15:38:24.287Z,40.23
2023-02-11T15:40:29.799Z,41.87
2023-02-11T15:42:47.240Z,41.60
2023-02-11T15:45:11.777Z,35.47
2023-02-11T15:47:20.865Z,50.13
2023-02-11T15:49:25.373Z,48.60
2023-02-11T15:51:34.211Z,40.27
2023-02-11T15:53:41.004Z,42.80
2023-02-11T15:55:44.576Z,39.63
2023-02-11T15:57:53.545Z,45.00
2023-02-11T15:59:57.414Z,43.03
2023-02-11T16:02:08.516Z,45.53
2023-02-11T16:04:18.206Z,43.43
2023-02-11T16:06:24.468Z,34.07
2023-02-11T16:08:32.759Z,38.87
2023-02-11T16:10:36.631Z,42.23
2023-02-11T16:12:40.018Z,40.07
2023-02-11T16:14:43.399Z,42.97
2023-02-11T16:16:49.753Z,44.67
2023-02-11T16:19:04.835Z,43.50
2023-02-11T16:21:16.805Z,42.40
2023-02-11T16:23:24.868Z,44.63
2023-02-11T16:25:29.683Z,42.40
2023-02-11T16:27:39.070Z,37.97
2023-02-11T16:29:47.422Z,48.27
2023-02-11T16:31:51.206Z,41.23
2023-02-11T16:33:54.525Z,43.97
2023-02-11T16:36:01.970Z,39.67
2023-02-11T16:38:05.290Z,46.27
2023-02-11T16:40:11.891Z,42.07
2023-02-11T16:42:16.650Z,46.80
2023-02-11T16:44:20.521Z,47.83
2023-02-11T16:46:24.094Z,44.87
2023-02-11T16:48:27.496Z,46.33
2023-02-11T16:50:30.947Z,42.90
2023-02-11T16:52:35.029Z,46.07
2023-02-11T16:54:38.342Z,50.40
2023-02-11T16:56:42.178Z,40.00
2023-02-11T16:58:46.900Z,45.23
2023-02-11T17:00:51.377Z,38.77
2023-02-11T17:02:55.065Z,45.50
2023-02-11T17:05:00.916Z,49.83
2023-02-11T17:07:04.323Z,45.50
2023-02-11T17:09:08.562Z,52.33
2023-02-11T17:11:16.601Z,40.60
2023-02-11T17:13:20.228Z,48.43
2023-02-11T17:15:24.899Z,46.23
2023-02-11T17:17:29.308Z,48.30
2023-02-11T17:19:32.678Z,53.93
2023-02-11T17:21:36.077Z,38.07
2023-02-11T17:23:39.465Z,50.30
2023-02-11T17:25:42.763Z,45.60
2023-02-11T17:27:46.204Z,53.37
2023-02-11T17:29:49.540Z,44.90
2023-02-11T17:31:54.512Z,42.30
2023-02-11T17:33:57.945Z,47.67
2023-02-11T17:36:04.637Z,50.10
2023-02-11T17:38:07.970Z,43.30
2023-02-11T17:40:12.803Z,47.83
2023-02-11T17:42:16.131Z,43.57
2023-02-11T17:44:19.436Z,36.87
2023-02-11T17:46:22.958Z,44.87
2023-02-11T17:48:27.808Z,42.80
2023-02-11T17:50:31.139Z,47.63
2023-02-11T17:52:34.465Z,44.07
2023-02-11T17:54:39.536Z,45.60
2023-02-11T17:56:44.103Z,40.40
2023-02-11T17:58:47.734Z,43.77
2023-02-11T18:00:51.440Z,33.97
2023-02-11T18:02:57.475Z,39.63
2023-02-11T18:05:02.447Z,43.03
2023-02-11T18:07:05.790Z,42.80
2023-02-11T18:09:09.137Z,40.30
2023-02-11T18:11:15.003Z,35.33
2023-02-11T18:13:18.413Z,41.67
2023-02-11T18:15:22.024Z,39.90
2023-02-11T18:17:25.465Z,38.30
2023-02-11T18:19:31.973Z,62.43
2023-02-11T18:21:37.570Z,73.60
2023-02-11T18:23:41.028Z,81.27
2023-02-11T18:25:44.900Z,78.57
2023-02-11T18:27:48.265Z,65.73
2023-02-11T18:29:51.783Z,47.10
2023-02-11T18:31:58.311Z,41.40
2023-02-11T18:34:01.966Z,33.73
2023-02-11T18:36:07.336Z,46.33
2023-02-11T18:38:12.125Z,44.53
2023-02-11T18:40:16.326Z,38.83
2023-02-11T18:42:19.639Z,42.43
2023-02-11T18:44:24.608Z,44.33
2023-02-11T18:46:28.111Z,42.97
2023-02-11T18:48:31.672Z,47.77
2023-02-11T18:50:35.033Z,41.40
2023-02-11T18:52:38.454Z,39.03
2023-02-11T18:54:43.146Z,37.23
2023-02-11T18:56:46.545Z,43.03
2023-02-11T18:58:51.371Z,40.30
2023-02-11T19:00:54.787Z,52.00
2023-02-11T19:02:58.749Z,45.70
2023-02-11T19:05:02.442Z,50.83
2023-02-11T19:07:05.760Z,42.93
2023-02-11T19:09:11.881Z,48.80
2023-02-11T19:11:18.625Z,49.43
2023-02-11T19:13:21.950Z,38.57
2023-02-11T19:15:25.710Z,35.23
2023-02-11T19:17:28.997Z,42.83
2023-02-11T19:19:35.991Z,44.00
2023-02-11T19:21:39.435Z,49.03
2023-02-11T19:23:43.078Z,45.80
2023-02-11T19:25:47.686Z,36.90
2023-02-11T19:27:52.425Z,39.47
2023-02-11T19:29:55.762Z,40.20
2023-02-11T19:31:59.160Z,37.47
2023-02-11T19:34:03.973Z,39.27
2023-02-11T19:36:09.631Z,41.97
2023-02-11T19:38:13.966Z,34.23
2023-02-11T19:40:17.691Z,33.00
2023-02-11T19:42:21.093Z,38.23
2023-02-11T19:44:25.947Z,42.27
2023-02-11T19:46:31.250Z,41.83
2023-02-11T19:48:34.812Z,37.87
2023-02-11T19:50:41.047Z,37.20
2023-02-11T19:52:44.351Z,36.07
2023-02-11T19:54:48.072Z,47.67
2023-02-11T19:56:51.402Z,45.27
2023-02-11T19:58:55.183Z,44.10
2023-02-11T20:01:07.557Z,40.80
2023-02-11T20:03:11.001Z,43.63
2023-02-11T20:05:14.402Z,37.30
2023-02-11T20:07:18.360Z,39.27
2023-02-11T20:09:22.762Z,42.13
2023-02-11T20:11:28.176Z,40.70
2023-02-11T20:13:31.846Z,33.53
2023-02-11T20:15:35.235Z,36.17
2023-02-11T20:17:39.998Z,40.50
2023-02-11T20:19:43.306Z,39.80
2023-02-11T20:21:48.429Z,38.30
2023-02-11T20:23:52.752Z,39.07
2023-02-11T20:25:56.301Z,50.30
2023-02-11T20:27:59.650Z,42.83
2023-02-11T20:30:03.000Z,45.57
2023-02-11T20:32:06.623Z,44.90
2023-02-11T20:34:12.487Z,44.07
2023-02-11T20:36:17.819Z,42.60
2023-02-11T20:38:21.265Z,38.70
2023-02-11T20:40:24.933Z,37.93
2023-02-11T20:42:28.574Z,42.90
2023-02-11T20:44:31.929Z,36.33
2023-02-11T20:46:38.026Z,41.50
2023-02-11T20:48:41.913Z,31.60
2023-02-11T20:50:48.307Z,39.27
2023-02-11T20:52:51.960Z,42.20
2023-02-11T20:54:55.319Z,34.33
2023-02-11T20:56:59.717Z,30.50
2023-02-11T20:59:04.342Z,37.53
2023-02-11T21:01:08.875Z,34.00
2023-02-11T21:03:12.233Z,28.63
2023-02-11T21:05:15.835Z,39.00
2023-02-11T21:07:20.493Z,39.50
2023-02-11T21:09:25.801Z,36.13
2023-02-11T21:11:31.089Z,40.97
2023-02-11T21:13:34.436Z,33.13
2023-02-11T21:15:37.780Z,33.27
2023-02-11T21:17:41.181Z,34.20
2023-02-11T21:19:44.825Z,40.70
2023-02-11T21:21:48.321Z,33.30
2023-02-11T21:23:53.675Z,29.00
2023-02-11T21:25:57.871Z,41.10
2023-02-11T21:28:01.233Z,32.07
2023-02-11T21:30:05.350Z,32.13
2023-02-11T21:32:08.805Z,36.60
2023-02-11T21:34:12.824Z,34.80
2023-02-11T21:36:16.143Z,30.20
2023-02-11T21:38:19.581Z,31.63
2023-02-11T21:40:27.344Z,28.80
2023-02-11T21:42:30.756Z,30.47
2023-02-11T21:44:34.116Z,25.43
2023-02-11T21:46:37.682Z,43.30
2023-02-11T21:48:41.402Z,33.57
2023-02-11T21:50:46.515Z,35.80
2023-02-11T21:52:49.866Z,32.70
2023-02-11T21:54:53.190Z,39.20
2023-02-11T21:56:58.053Z,39.67
2023-02-11T21:59:01.773Z,29.90
2023-02-11T22:01:12.370Z,30.40
2023-02-11T22:03:15.729Z,50.70
2023-02-11T22:05:19.187Z,41.80
2023-02-11T22:07:22.746Z,42.13
2023-02-11T22:09:26.079Z,34.87
2023-02-11T22:11:29.563Z,35.43
2023-02-11T22:13:34.785Z,35.53
2023-02-11T22:15:38.062Z,34.87
2023-02-11T22:17:41.509Z,33.80
2023-02-11T22:19:44.810Z,35.20
2023-02-11T22:21:48.197Z,32.07
2023-02-11T22:23:52.014Z,33.37
2023-02-11T22:25:55.829Z,24.30
2023-02-11T22:27:59.410Z,39.23
2023-02-11T22:30:04.888Z,41.20
2023-02-11T22:32:08.374Z,39.97
2023-02-11T22:34:11.713Z,31.00
2023-02-11T22:36:17.082Z,31.30
2023-02-11T22:38:20.718Z,41.97
2023-02-11T22:40:24.993Z,38.77
2023-02-11T22:42:28.351Z,39.27
2023-02-11T22:44:31.654Z,40.70
2023-02-11T22:46:36.919Z,45.23
2023-02-11T22:48:41.281Z,39.83
2023-02-11T22:50:44.625Z,32.50
2023-02-11T22:52:48.007Z,31.77
2023-02-11T22:54:51.971Z,32.20
2023-02-11T22:56:55.345Z,33.20
2023-02-11T22:58:59.633Z,30.87
2023-02-11T23:01:03.108Z,32.47
2023-02-11T23:03:09.563Z,34.97
2023-02-11T23:05:12.878Z,35.50
2023-02-11T23:07:16.240Z,41.40
2023-02-11T23:09:19.596Z,34.13
2023-02-11T23:11:28.298Z,35.77
2023-02-11T23:13:31.648Z,28.87
2023-02-11T23:15:35.417Z,34.67
2023-02-11T23:17:38.762Z,33.00
2023-02-11T23:19:43.423Z,34.23
2023-02-11T23:21:47.630Z,29.87
2023-02-11T23:23:56.062Z,35.83
2023-02-11T23:25:59.465Z,32.37
2023-02-11T23:28:02.930Z,28.00
2023-02-11T23:30:07.462Z,29.80
2023-02-11T23:32:10.851Z,48.10
2023-02-11T23:34:17.090Z,41.30
2023-02-11T23:36:22.976Z,46.37
2023-02-11T23:38:26.465Z,41.10
2023-02-11T23:40:29.752Z,36.60
2023-02-11T23:42:33.009Z,45.47
2023-02-11T23:44:36.279Z,41.13
2023-02-11T23:46:39.926Z,35.77
2023-02-11T23:48:45.055Z,37.30
2023-02-11T23:50:48.728Z,33.63
2023-02-11T23:52:53.489Z,32.33
2023-02-11T23:54:56.828Z,33.50
2023-02-11T23:57:00.268Z,30.40
2023-02-11T23:59:03.687Z,41.60
